Time;durP1;ratioP1;P1;durP2;ratioP2;P2;SDS_P1;SDS_P2;PMS_P1;PMS_P2;Temp;Humidity;BMP_temperature;BMP_pressure;BME280_temperature;BME280_humidity;BME280_pressure;Samples;Min_cycle;Max_cycle;Signal;HPM_P1;HPM_P2
2022/03/10 00:01:33;;;;;;;27.17;16.67;;;;;;;11.02;52.11;101456.06;5030563;28;20068;-63
2022/03/10 00:04:00;;;;;;;26.00;16.40;;;;;;;10.99;52.20;101460.25;5042783;28;20046;-65
2022/03/10 00:06:27;;;;;;;24.92;16.08;;;;;;;10.80;52.50;101456.69;5032967;28;20049;-64
2022/03/10 00:08:55;;;;;;;26.05;16.13;;;;;;;10.82;52.48;101459.13;5045957;28;20900;-64
2022/03/10 00:11:22;;;;;;;25.65;15.57;;;;;;;10.88;52.50;101461.50;5034635;28;20049;-63
2022/03/10 00:13:50;;;;;;;23.70;15.15;;;;;;;10.87;52.23;101461.81;5034993;28;20049;-63
2022/03/10 00:16:17;;;;;;;26.35;16.73;;;;;;;10.78;52.52;101452.56;5034733;28;20045;-63
2022/03/10 00:18:45;;;;;;;27.30;15.95;;;;;;;10.76;52.71;101460.31;5032725;28;20041;-63
2022/03/10 00:21:12;;;;;;;25.58;16.13;;;;;;;10.79;52.53;101456.97;5034474;28;20053;-63
2022/03/10 00:23:39;;;;;;;25.50;16.17;;;;;;;10.85;52.07;101459.34;5034669;28;20416;-63
2022/03/10 00:26:07;;;;;;;25.90;15.57;;;;;;;10.84;52.15;101454.16;5035026;28;20053;-63
2022/03/10 00:28:34;;;;;;;26.27;15.85;;;;;;;10.86;52.08;101454.66;5033569;28;20053;-63
2022/03/10 00:31:02;;;;;;;26.52;15.88;;;;;;;10.98;51.83;101457.81;5042292;28;20205;-63
2022/03/10 00:33:29;;;;;;;21.80;14.77;;;;;;;10.75;52.22;101455.91;5057433;28;20045;-63
2022/03/10 00:35:57;;;;;;;27.52;17.00;;;;;;;10.80;52.40;101453.91;5056208;28;20056;-64
2022/03/10 00:38:24;;;;;;;26.52;16.50;;;;;;;10.58;52.90;101459.19;5038654;28;20053;-64
2022/03/10 00:40:51;;;;;;;24.52;16.48;;;;;;;10.33;53.50;101459.50;5038195;28;20052;-65
2022/03/10 00:43:19;;;;;;;24.10;15.45;;;;;;;10.45;53.44;101461.81;5037764;28;20480;-63
2022/03/10 00:45:46;;;;;;;25.30;15.55;;;;;;;10.55;52.94;101465.25;5035975;28;20049;-63
2022/03/10 00:48:13;;;;;;;25.50;16.17;;;;;;;10.61;52.77;101469.59;5037266;28;20515;-64
2022/03/10 00:50:41;;;;;;;22.17;14.68;;;;;;;10.35;52.93;101461.94;5037163;28;20064;-63
2022/03/10 00:53:08;;;;;;;25.73;16.50;;;;;;;10.42;53.23;101467.91;5038419;28;20049;-64
2022/03/10 00:55:35;;;;;;;27.73;15.82;;;;;;;10.37;53.17;101470.75;5036771;28;20053;-64
2022/03/10 00:58:03;;;;;;;24.73;15.48;;;;;;;10.33;53.39;101467.75;5038338;28;20049;-63
2022/03/10 01:00:30;;;;;;;25.67;16.20;;;;;;;10.42;53.14;101459.66;5038204;28;20060;-63
2022/03/10 01:02:58;;;;;;;22.08;15.30;;;;;;;10.35;53.33;101459.19;5038149;28;20049;-64
2022/03/10 01:05:26;;;;;;;24.67;15.82;;;;;;;10.36;53.21;101469.09;5036170;28;20072;-63
2022/03/10 01:07:53;;;;;;;25.45;14.98;;;;;;;10.70;52.50;101462.34;5036360;28;20049;-63
2022/03/10 01:10:20;;;;;;;27.25;15.70;;;;;;;10.67;52.05;101465.66;5037890;28;20588;-63
2022/03/10 01:12:48;;;;;;;26.17;16.20;;;;;;;10.33;53.16;101465.00;5037951;28;20058;-64
2022/03/10 01:15:19;;;;;;;23.25;15.75;;;;;;;10.44;52.77;101469.28;5043721;28;20061;-63
2022/03/10 01:17:46;;;;;;;;;;;;;;;10.61;52.41;101458.59;5046662;28;20056;-63
2022/03/10 01:20:17;;;;;;;31.23;15.75;;;;;;;10.51;52.42;101466.16;5036378;28;19928;-64
2022/03/10 01:22:44;;;;;;;26.38;16.63;;;;;;;10.07;54.02;101464.44;5037310;28;20049;-63
2022/03/10 01:25:12;;;;;;;23.95;15.68;;;;;;;10.30;53.63;101467.53;5036467;28;20057;-64
2022/03/10 01:27:40;;;;;;;25.45;16.13;;;;;;;10.27;53.45;101474.41;5037852;28;20119;-63
2022/03/10 01:30:09;;;;;;;25.08;15.55;;;;;;;10.33;53.48;101464.19;5036342;28;20519;-63
2022/03/10 01:32:37;;;;;;;24.58;16.58;;;;;;;10.16;53.59;101467.41;5056298;28;20045;-63
2022/03/10 01:35:05;;;;;;;28.25;16.50;;;;;;;10.03;54.13;101474.38;5055477;28;20053;-63
2022/03/10 01:37:36;;;;;;;24.73;16.50;;;;;;;10.04;54.12;101472.47;5056153;28;20045;-63
2022/03/10 01:40:09;;;;;;;28.73;16.50;;;;;;;9.97;53.97;101469.25;5057331;28;20048;-64
2022/03/10 01:42:36;;;;;;;26.63;16.42;;;;;;;9.89;54.48;101469.84;5055554;28;20048;-63
2022/03/10 01:45:05;;;;;;;28.38;17.42;;;;;;;9.96;54.28;101465.66;5057010;28;20049;-63
2022/03/10 01:47:32;;;;;;;26.25;15.45;;;;;;;9.86;54.58;101462.19;5057213;28;20049;-64
2022/03/10 01:50:00;;;;;;;27.23;16.60;;;;;;;9.95;54.46;101461.28;5055707;28;20063;-63
2022/03/10 01:52:27;;;;;;;29.80;16.90;;;;;;;10.01;54.14;101464.78;5055461;28;20561;-62
2022/03/10 01:54:56;;;;;;;28.85;16.83;;;;;;;9.84;54.48;101461.66;5055308;28;20054;-63
2022/03/10 01:57:25;;;;;;;28.60;18.05;;;;;;;9.84;54.45;101456.97;5039352;28;20060;-64
2022/03/10 01:59:54;;;;;;;;;;;;;;;9.90;54.53;101457.75;5057426;28;20044;-63
2022/03/10 02:02:21;;;;;;;29.00;17.50;;;;;;;10.07;54.02;101452.59;5056659;28;19928;-63
2022/03/10 02:04:49;;;;;;;28.17;17.20;;;;;;;9.72;54.65;101452.97;5055410;28;20048;-64
2022/03/10 02:10:18;;;;;;;28.55;17.23;;;;;;;9.70;54.58;101452.44;5056714;28;20056;-63
2022/03/10 02:12:50;;;;;;;27.05;16.80;;;;;;;9.73;54.52;101460.09;5056116;28;20053;-63
2022/03/10 02:18:08;;;;;;;28.20;17.13;;;;;;;9.48;54.78;101454.84;5042060;28;20124;-63
2022/03/10 02:20:36;;;;;;;27.25;17.10;;;;;;;9.57;54.69;101458.63;5039978;28;20061;-64
2022/03/10 02:23:04;;;;;;;26.55;16.65;;;;;;;9.80;53.71;101449.56;5043833;28;20077;-64
2022/03/10 02:25:33;;;;;;;31.50;17.73;;;;;;;9.34;54.89;101446.44;5036530;28;20057;-62
2022/03/10 02:28:00;;;;;;;28.17;17.20;;;;;;;9.77;53.85;101447.41;5035343;28;20045;-64
2022/03/10 02:30:30;;;;;;;29.10;17.95;;;;;;;9.53;54.20;101455.63;5034585;28;20054;-63
2022/03/10 02:32:58;;;;;;;25.73;16.23;;;;;;;9.50;54.37;101455.38;5016367;28;20402;-63
2022/03/10 02:35:26;;;;;;;29.58;17.10;;;;;;;9.49;54.53;101448.22;5016573;28;20068;-63
2022/03/10 02:37:54;;;;;;;30.67;18.13;;;;;;;9.42;54.59;101454.06;5030706;28;20053;-63
2022/03/10 02:40:22;;;;;;;29.92;17.30;;;;;;;9.27;54.85;101458.88;5016408;28;20056;-63
2022/03/10 02:42:49;;;;;;;29.75;17.42;;;;;;;9.39;54.92;101456.56;5015438;28;20057;-64
2022/03/10 02:45:16;;;;;;;28.33;17.38;;;;;;;9.46;54.51;101463.38;5014397;28;20054;-64
2022/03/10 02:47:44;;;;;;;30.88;18.38;;;;;;;9.30;55.15;101464.63;5047916;28;20405;-64
2022/03/10 02:50:11;;;;;;;29.50;18.27;;;;;;;9.30;55.22;101467.38;5016425;28;20054;-64
2022/03/10 02:52:39;;;;;;;28.48;17.83;;;;;;;9.49;54.59;101457.31;5016368;28;20049;-62
2022/03/10 02:55:07;;;;;;;29.90;18.17;;;;;;;9.61;54.46;101465.16;5014728;28;20060;-63
2022/03/10 02:57:37;;;;;;;29.42;17.60;;;;;;;9.49;54.54;101465.56;5015950;28;20049;-64
2022/03/10 03:00:06;;;;;;;29.05;18.85;;;;;;;9.52;54.47;101466.91;5015917;28;20050;-64
2022/03/10 03:02:34;;;;;;;30.60;17.75;;;;;;;9.58;54.34;101463.84;5047260;28;20060;-63
2022/03/10 03:05:01;;;;;;;30.80;17.83;;;;;;;9.37;54.58;101461.53;5047715;28;20518;-63
2022/03/10 03:07:28;;;;;;;31.38;17.65;;;;;;;9.26;54.90;101462.72;5015832;28;20521;-62
2022/03/10 03:09:56;;;;;;;27.23;17.70;;;;;;;9.27;54.80;101470.69;5016131;28;20054;-63
2022/03/10 03:12:23;;;;;;;31.17;18.85;;;;;;;9.43;55.00;101469.44;5015509;28;20050;-62
2022/03/10 03:14:50;;;;;;;30.77;18.75;;;;;;;9.24;54.87;101468.50;5015916;28;20057;-63
2022/03/10 03:17:18;;;;;;;31.95;18.17;;;;;;;9.20;55.11;101472.94;5023158;28;20041;-63
2022/03/10 03:19:45;;;;;;;26.17;16.92;;;;;;;9.29;55.01;101470.41;5034361;28;20076;-63
2022/03/10 03:22:13;;;;;;;27.42;17.48;;;;;;;9.13;55.70;101477.09;5035399;28;20056;-63
2022/03/10 03:24:40;;;;;;;31.13;17.40;;;;;;;9.09;55.56;101479.59;5034182;28;20536;-63
2022/03/10 03:27:08;;;;;;;30.38;18.00;;;;;;;9.24;55.29;101482.22;5015557;28;20405;-64
2022/03/10 03:29:35;;;;;;;26.75;17.52;;;;;;;9.04;55.71;101472.22;5014426;28;20054;-63
2022/03/10 03:32:03;;;;;;;27.08;17.38;;;;;;;9.36;54.72;101488.22;5039629;28;20049;-64
2022/03/10 03:34:31;;;;;;;27.42;16.50;;;;;;;9.29;54.37;101479.47;5044382;28;20049;-63
2022/03/10 03:36:58;;;;;;;27.25;17.63;;;;;;;9.02;55.33;101484.59;5033544;28;20513;-63
2022/03/10 03:39:26;;;;;;;27.85;18.10;;;;;;;9.04;55.45;101491.47;5035342;28;20049;-63
2022/03/10 03:41:53;;;;;;;26.55;17.52;;;;;;;8.83;56.03;101492.69;5035027;28;20049;-63
2022/03/10 03:44:20;;;;;;;31.13;17.65;;;;;;;8.79;56.51;101490.75;5035016;28;20049;-63
2022/03/10 03:46:48;;;;;;;28.60;16.85;;;;;;;8.82;56.10;101487.47;5035150;28;20049;-64
2022/03/10 03:49:15;;;;;;;30.33;16.73;;;;;;;8.97;56.08;101487.38;5035195;28;20065;-64
2022/03/10 03:51:43;;;;;;;25.13;16.33;;;;;;;8.85;56.20;101490.47;5035167;28;20050;-63
2022/03/10 03:54:10;;;;;;;26.48;17.65;;;;;;;8.72;56.46;101490.25;5034937;28;20056;-64
2022/03/10 03:56:37;;;;;;;28.70;16.35;;;;;;;8.74;56.61;101490.78;5034733;28;20530;-63
2022/03/10 03:59:05;;;;;;;29.92;17.00;;;;;;;8.88;55.55;101484.41;5035115;28;20057;-63
2022/03/10 04:01:33;;;;;;;31.55;18.05;;;;;;;8.70;56.61;101495.22;5035277;28;20058;-63
2022/03/10 04:04:01;;;;;;;27.67;16.75;;;;;;;8.74;56.45;101499.88;5034607;28;20069;-64
2022/03/10 04:06:28;;;;;;;28.70;17.45;;;;;;;8.73;56.32;101500.16;5035935;28;20064;-63
2022/03/10 04:08:55;;;;;;;25.70;16.05;;;;;;;9.02;55.50;101496.41;5039108;28;20144;-63
2022/03/10 04:11:23;;;;;;;28.30;17.27;;;;;;;9.00;55.54;101493.13;5038812;28;20053;-63
2022/03/10 04:13:50;;;;;;;29.15;17.92;;;;;;;8.89;55.69;101497.03;5038678;28;20049;-64
2022/03/10 04:16:18;;;;;;;27.95;17.60;;;;;;;8.76;56.22;101496.84;5038774;28;20049;-63
2022/03/10 04:18:46;;;;;;;28.30;17.08;;;;;;;8.82;56.33;101501.22;5036696;28;20050;-63
2022/03/10 04:21:13;;;;;;;30.05;17.13;;;;;;;8.93;55.62;101498.13;5037606;28;20136;-63
2022/03/10 04:23:40;;;;;;;25.90;16.85;;;;;;;9.03;55.29;101502.75;5038768;28;20508;-64
2022/03/10 04:26:08;;;;;;;29.80;17.42;;;;;;;8.71;56.26;101508.69;5038504;28;20057;-62
2022/03/10 04:28:35;;;;;;;28.80;17.90;;;;;;;8.81;56.15;101507.78;5038686;28;20062;-63
2022/03/10 04:31:03;;;;;;;27.98;17.23;;;;;;;8.92;55.78;101512.13;5044907;28;20424;-63
2022/03/10 04:33:31;;;;;;;29.40;18.25;;;;;;;8.81;56.15;101511.38;5058242;28;20052;-63
2022/03/10 04:35:58;;;;;;;27.35;17.13;;;;;;;8.87;55.79;101509.44;5058393;28;20053;-63
2022/03/10 04:38:25;;;;;;;31.33;17.88;;;;;;;8.74;56.40;101516.34;5058217;28;20049;-64
2022/03/10 04:40:53;;;;;;;30.10;17.70;;;;;;;8.85;56.02;101517.13;5058181;28;20057;-63
2022/03/10 04:43:20;;;;;;;26.92;16.15;;;;;;;8.77;55.93;101512.22;5053602;28;20404;-63
2022/03/10 04:45:47;;;;;;;27.55;17.88;;;;;;;8.63;56.55;101508.44;5035666;28;20044;-63
2022/03/10 04:48:15;;;;;;;29.48;17.55;;;;;;;8.62;56.54;101502.13;5058079;28;20060;-63
2022/03/10 04:50:42;;;;;;;29.52;17.02;;;;;;;8.70;56.68;101500.72;5056149;28;20064;-64
2022/03/10 04:53:09;;;;;;;27.45;17.02;;;;;;;8.70;56.31;101515.25;5056773;28;20555;-63
2022/03/10 04:55:37;;;;;;;28.67;17.50;;;;;;;8.64;56.30;101505.41;5057977;28;20358;-63
2022/03/10 04:58:05;;;;;;;28.60;17.73;;;;;;;8.43;57.02;101508.50;5058022;28;20711;-63
2022/03/10 05:00:32;;;;;;;29.33;17.88;;;;;;;8.51;56.91;101511.50;5057981;28;20063;-63
2022/03/10 05:03:00;;;;;;;27.70;16.67;;;;;;;8.57;56.84;101506.81;5057646;28;20488;-64
2022/03/10 05:05:27;;;;;;;30.98;18.13;;;;;;;8.41;57.41;101507.97;5057854;28;20048;-63
2022/03/10 05:07:55;;;;;;;27.55;16.52;;;;;;;8.18;58.26;101508.53;5057722;28;20052;-64
2022/03/10 05:10:22;;;;;;;33.58;17.33;;;;;;;8.56;57.51;101499.69;5057567;28;20049;-63
2022/03/10 05:12:54;;;;;;;27.00;17.40;;;;;;;8.61;56.75;101499.66;5057587;28;20053;-63
2022/03/10 05:15:31;;;;;;;25.80;16.48;;;;;;;8.39;57.26;101507.41;5057661;28;20436;-63
2022/03/10 05:17:59;;;;;;;26.52;16.65;;;;;;;8.17;58.12;101494.03;5044235;28;20042;-63
2022/03/10 05:20:27;;;;;;;29.35;17.58;;;;;;;8.17;58.38;101502.25;5037747;28;20050;-63
2022/03/10 05:23:00;;;;;;;27.55;17.52;;;;;;;8.23;58.04;101494.84;5037612;28;20050;-63
2022/03/10 05:25:34;;;;;;;27.02;17.00;;;;;;;8.31;57.83;101497.84;5037689;28;20057;-63
2022/03/10 05:28:03;;;;;;;26.08;17.70;;;;;;;8.49;57.50;101497.22;5036665;28;20508;-63
2022/03/10 05:30:30;;;;;;;28.27;18.20;;;;;;;8.35;58.05;101501.66;5039208;28;20053;-63
2022/03/10 05:32:58;;;;;;;28.73;16.75;;;;;;;8.38;58.30;101506.63;5057262;28;20064;-63
2022/03/10 05:35:29;;;;;;;30.38;18.00;;;;;;;8.38;57.93;101495.63;5057257;28;20060;-63
2022/03/10 05:37:56;;;;;;;30.77;17.73;;;;;;;8.46;57.91;101496.97;5055338;28;20053;-63
2022/03/10 05:40:24;;;;;;;28.35;17.77;;;;;;;8.51;57.69;101500.50;5057122;28;20060;-62
2022/03/10 05:42:52;;;;;;;29.42;18.70;;;;;;;8.51;57.76;101494.19;5055992;28;20053;-64
2022/03/10 05:45:20;;;;;;;28.75;17.80;;;;;;;8.29;58.19;101494.56;5055895;28;20056;-63
2022/03/10 05:47:52;;;;;;;33.17;17.70;;;;;;;8.42;58.13;101501.38;5057117;28;20056;-63
2022/03/10 05:50:21;;;;;;;33.75;17.40;;;;;;;8.30;58.15;101500.88;5057457;28;20060;-64
2022/03/10 05:52:48;;;;;;;30.42;17.58;;;;;;;8.34;58.29;101511.00;5055745;28;20400;-64
2022/03/10 05:55:16;;;;;;;28.63;18.80;;;;;;;8.28;58.58;101503.88;5052729;28;20424;-63
2022/03/10 05:57:47;;;;;;;34.50;18.40;;;;;;;8.14;58.85;101508.31;5043862;28;20064;-63
2022/03/10 06:00:15;;;;;;;29.30;17.80;;;;;;;8.19;58.73;101508.28;5035812;28;20053;-63
2022/03/10 06:02:42;;;;;;;30.10;18.75;;;;;;;8.30;58.46;101501.69;5037019;28;20520;-64
2022/03/10 06:05:10;;;;;;;26.17;17.38;;;;;;;8.23;59.00;101517.59;5035341;28;20045;-64
2022/03/10 06:07:38;;;;;;;29.40;17.45;;;;;;;8.30;58.84;101511.84;5036771;28;20547;-63
2022/03/10 06:10:06;;;;;;;29.48;17.50;;;;;;;8.12;59.52;101512.41;5036848;28;20068;-65
2022/03/10 06:12:34;;;;;;;28.67;17.13;;;;;;;8.13;59.28;101508.56;5036637;28;20056;-63
2022/03/10 06:15:04;;;;;;;28.13;18.05;;;;;;;8.21;59.10;101508.81;5036608;28;20053;-63
2022/03/10 06:17:31;;;;;;;33.15;18.77;;;;;;;8.13;59.23;101512.13;5035320;28;20673;-62
2022/03/10 06:19:59;;;;;;;28.45;17.65;;;;;;;7.92;60.06;101507.78;5035127;28;20052;-63
2022/03/10 06:22:34;;;;;;;27.73;17.38;;;;;;;7.80;60.50;101502.59;5034709;28;20062;-62
2022/03/10 06:25:01;;;;;;;29.05;16.85;;;;;;;8.33;59.65;101508.56;5031990;28;20381;-64
2022/03/10 06:27:28;;;;;;;30.65;18.98;;;;;;;8.17;60.28;101509.66;5035611;28;20408;-63
2022/03/10 06:29:56;;;;;;;28.52;17.23;;;;;;;8.25;59.64;101511.84;5034274;28;20053;-62
2022/03/10 06:32:24;;;;;;;31.92;18.35;;;;;;;7.93;60.42;101515.72;5041842;28;20057;-61
2022/03/10 06:34:56;;;;;;;29.02;18.63;;;;;;;8.19;60.01;101519.25;5026030;28;20046;-62
2022/03/10 06:37:23;;;;;;;26.30;17.92;;;;;;;8.02;60.33;101517.94;5016403;28;20056;-63
2022/03/10 06:39:52;;;;;;;28.90;18.13;;;;;;;8.01;60.73;101522.56;5031661;28;20050;-63
2022/03/10 06:42:20;;;;;;;31.33;18.58;;;;;;;7.88;60.93;101517.66;5016129;28;20085;-62
2022/03/10 06:44:47;;;;;;;33.17;18.02;;;;;;;8.06;60.30;101522.56;5014872;28;20540;-63
2022/03/10 06:47:15;;;;;;;29.00;18.10;;;;;;;7.73;61.55;101523.97;5017107;28;20060;-62
2022/03/10 06:49:43;;;;;;;28.70;17.48;;;;;;;7.79;61.59;101525.59;5016024;28;20049;-62
2022/03/10 06:52:10;;;;;;;30.73;18.50;;;;;;;7.78;61.81;101528.63;5016223;28;20053;-62
2022/03/10 06:54:38;;;;;;;30.65;17.98;;;;;;;7.94;60.86;101528.34;5015877;28;20776;-63
2022/03/10 06:57:06;;;;;;;27.50;17.73;;;;;;;7.86;60.97;101528.91;5016072;28;20417;-62
2022/03/10 06:59:33;;;;;;;29.20;17.75;;;;;;;7.88;61.30;101526.69;5015981;28;20355;-62
2022/03/10 07:02:01;;;;;;;31.83;17.73;;;;;;;7.99;60.82;101531.09;5015932;28;20050;-62
2022/03/10 07:04:28;;;;;;;28.95;18.00;;;;;;;7.91;61.11;101522.59;5015562;28;20050;-62
2022/03/10 07:06:56;;;;;;;31.45;18.77;;;;;;;7.87;61.61;101529.72;5014616;28;20061;-62
2022/03/10 07:09:23;;;;;;;29.33;18.27;;;;;;;8.00;61.56;101529.19;5016969;28;20045;-63
2022/03/10 07:11:50;;;;;;;29.33;18.17;;;;;;;8.08;60.85;101538.75;5015644;28;20049;-62
2022/03/10 07:14:17;;;;;;;27.17;17.90;;;;;;;7.97;61.30;101537.94;5015519;28;20060;-62
2022/03/10 07:16:45;;;;;;;34.97;19.40;;;;;;;8.07;61.01;101542.59;5015718;28;20049;-62
2022/03/10 07:19:13;;;;;;;32.75;20.25;;;;;;;7.91;61.64;101539.84;5015765;28;20057;-62
2022/03/10 07:21:40;;;;;;;29.67;18.35;;;;;;;7.90;61.76;101543.72;5015771;28;20050;-63
2022/03/10 07:24:08;;;;;;;32.13;18.33;;;;;;;7.79;62.38;101544.00;5015658;28;20404;-62
2022/03/10 07:26:36;;;;;;;34.13;18.27;;;;;;;7.86;62.55;101544.56;5015418;28;20064;-62
2022/03/10 07:29:03;;;;;;;31.38;18.58;;;;;;;8.11;61.96;101547.25;5015653;28;20053;-63
2022/03/10 07:31:32;;;;;;;32.80;18.70;;;;;;;7.92;62.27;101547.00;5035417;28;20408;-63
2022/03/10 07:33:59;;;;;;;30.42;19.20;;;;;;;8.04;62.22;101543.16;5054945;28;20495;-61
2022/03/10 07:36:27;;;;;;;31.50;19.08;;;;;;;8.12;61.94;101539.84;5055151;28;20368;-62
2022/03/10 07:38:54;;;;;;;30.52;18.73;;;;;;;8.20;61.71;101548.34;5055180;28;20037;-62
2022/03/10 07:41:22;;;;;;;30.60;18.52;;;;;;;8.50;60.99;101544.72;5054182;28;20049;-62
2022/03/10 07:43:49;;;;;;;31.60;18.98;;;;;;;8.54;60.44;101543.06;5055076;28;20051;-62
2022/03/10 07:46:16;;;;;;;30.38;19.40;;;;;;;8.43;60.69;101553.25;5053647;28;20075;-63
2022/03/10 07:48:43;;;;;;;32.28;19.65;;;;;;;8.37;61.08;101546.13;5055008;28;20049;-63
2022/03/10 07:51:11;;;;;;;33.60;18.67;;;;;;;8.31;61.36;101543.69;5054768;28;20068;-62
2022/03/10 07:53:38;;;;;;;31.92;18.67;;;;;;;8.24;61.75;101557.69;5055081;28;20060;-62
2022/03/10 07:56:05;;;;;;;33.33;19.70;;;;;;;8.21;62.13;101562.88;5055030;28;20543;-62
2022/03/10 07:58:32;;;;;;;31.33;19.70;;;;;;;8.59;61.11;101554.88;5055008;28;20057;-62
2022/03/10 08:01:00;;;;;;;31.30;19.42;;;;;;;8.60;60.67;101552.91;5055260;28;20048;-62
2022/03/10 08:03:27;;;;;;;31.40;18.60;;;;;;;8.47;61.10;101545.28;5054703;28;20052;-61
2022/03/10 08:05:55;;;;;;;41.78;21.35;;;;;;;8.68;61.05;101546.88;5054371;28;20508;-62
2022/03/10 08:08:22;;;;;;;32.92;19.23;;;;;;;8.68;60.96;101553.16;5054667;28;20076;-62
2022/03/10 08:10:49;;;;;;;29.48;18.70;;;;;;;8.76;61.02;101549.84;5054574;28;20071;-61
2022/03/10 08:13:18;;;;;;;30.65;19.98;;;;;;;8.62;61.23;101550.72;5054681;28;20067;-62
2022/03/10 08:15:47;;;;;;;30.42;19.52;;;;;;;8.63;61.43;101553.19;5054531;28;20052;-62
2022/03/10 08:18:16;;;;;;;29.25;18.02;;;;;;;8.67;61.69;101551.53;5054619;28;20645;-61
2022/03/10 08:20:43;;;;;;;32.05;18.60;;;;;;;8.69;61.07;101548.50;5054137;28;20060;-62
2022/03/10 08:23:11;;;;;;;36.20;19.48;;;;;;;8.84;61.22;101553.91;5054788;28;20049;-62
2022/03/10 08:25:41;;;;;;;26.23;18.20;;;;;;;8.89;60.91;101559.41;5054153;28;20049;-62
2022/03/10 08:28:08;;;;;;;28.90;18.52;;;;;;;8.98;60.83;101554.94;5054550;28;20056;-62
2022/03/10 08:30:36;;;;;;;31.95;18.73;;;;;;;9.03;60.65;101550.25;5052061;28;20725;-62
2022/03/10 08:33:04;;;;;;;31.65;17.33;;;;;;;9.02;60.50;101550.53;5034673;28;20082;-62
2022/03/10 08:35:32;;;;;;;29.98;17.45;;;;;;;9.26;60.06;101553.44;5033114;28;20053;-63
2022/03/10 08:37:59;;;;;;;26.58;17.33;;;;;;;9.50;59.52;101549.69;5034685;28;20054;-62
2022/03/10 08:40:28;;;;;;;30.60;17.48;;;;;;;9.73;58.30;101543.47;5016688;28;20049;-63
2022/03/10 08:42:56;;;;;;;27.10;17.27;;;;;;;9.69;58.58;101539.63;5034903;28;20053;-64
2022/03/10 08:45:26;;;;;;;32.97;17.88;;;;;;;9.67;58.62;101539.13;5034295;28;20050;-63
2022/03/10 08:47:55;;;;;;;26.38;17.83;;;;;;;9.75;58.55;101535.75;5034687;28;20049;-62
2022/03/10 08:50:25;;;;;;;26.75;16.80;;;;;;;9.75;58.59;101541.25;5034410;28;20045;-62
2022/03/10 08:52:52;;;;;;;27.70;18.00;;;;;;;9.91;58.49;101540.00;5034238;28;20484;-63
2022/03/10 08:55:21;;;;;;;26.40;16.73;;;;;;;9.89;58.13;101533.97;5037476;28;20053;-62
2022/03/10 08:57:49;;;;;;;25.63;17.10;;;;;;;10.08;57.75;101532.16;5037911;28;20052;-62
2022/03/10 09:00:20;;;;;;;24.85;16.65;;;;;;;9.99;57.76;101533.03;5020273;28;20121;-61
2022/03/10 09:02:55;;;;;;;27.10;16.95;;;;;;;10.27;57.23;101537.75;5038019;28;20058;-62
2022/03/10 09:05:24;;;;;;;30.42;16.98;;;;;;;10.14;57.52;101530.19;5037644;28;20408;-62
2022/03/10 09:07:51;;;;;;;30.00;16.23;;;;;;;10.37;57.13;101534.91;5036544;28;20066;-62
2022/03/10 09:10:19;;;;;;;24.10;15.82;;;;;;;10.47;57.09;101529.28;5037634;28;20041;-63
2022/03/10 09:12:46;;;;;;;22.13;15.10;;;;;;;10.58;56.65;101528.06;5037818;28;20080;-67
2022/03/10 09:15:17;;;;;;;25.10;16.90;;;;;;;10.56;57.03;101527.53;5037510;28;20041;-67
2022/03/10 09:17:45;;;;;;;29.92;15.88;;;;;;;10.55;56.70;101531.38;5037894;28;20536;-62
2022/03/10 09:20:13;;;;;;;30.25;14.80;;;;;;;10.47;57.23;101537.53;5037558;28;20053;-62
2022/03/10 09:22:41;;;;;;;23.35;14.73;;;;;;;10.48;57.34;101530.09;5037551;28;20076;-64
2022/03/10 09:25:09;;;;;;;23.10;15.40;;;;;;;10.53;57.16;101528.09;5035506;28;20076;-63
2022/03/10 09:27:37;;;;;;;23.88;14.48;;;;;;;10.50;57.51;101534.19;5037372;28;20049;-63
2022/03/10 09:30:08;;;;;;;24.05;13.55;;;;;;;10.57;57.14;101531.09;5037514;28;20069;-62
2022/03/10 09:32:41;;;;;;;29.38;14.30;;;;;;;10.94;56.20;101531.16;5056222;28;20064;-62
2022/03/10 09:35:10;;;;;;;19.60;13.02;;;;;;;10.94;56.20;101531.16;5054991;28;20061;-61
2022/03/10 09:37:38;;;;;;;26.37;15.00;;;;;;;10.96;56.16;101528.94;5057454;28;20056;-63
2022/03/10 09:40:06;;;;;;;30.38;14.05;;;;;;;11.18;55.67;101518.97;5055759;28;20303;-63
2022/03/10 09:42:35;;;;;;;23.52;14.18;;;;;;;11.25;55.84;101519.41;5039142;28;20060;-62
2022/03/10 09:45:09;;;;;;;33.13;14.57;;;;;;;10.98;56.25;101522.00;5056976;28;20052;-63
2022/03/10 09:47:38;;;;;;;23.95;14.23;;;;;;;11.08;56.22;101527.41;5057055;28;20053;-62
2022/03/10 09:50:11;;;;;;;29.55;14.98;;;;;;;11.38;55.51;101513.13;5055677;28;20056;-63
2022/03/10 09:52:40;;;;;;;22.63;13.32;;;;;;;11.46;55.35;101514.41;5056975;28;20056;-63
2022/03/10 09:55:08;;;;;;;29.92;14.25;;;;;;;11.46;55.42;101524.63;5056519;28;20406;-62
2022/03/10 09:57:39;;;;;;;20.65;13.50;;;;;;;11.69;54.67;101512.69;5056936;28;20060;-63
2022/03/10 10:00:08;;;;;;;18.65;13.07;;;;;;;11.62;54.91;101513.06;5056851;28;20049;-62
2022/03/10 10:02:42;;;;;;;23.90;13.85;;;;;;;11.85;54.24;101512.16;5055663;28;20052;-62
2022/03/10 10:05:24;;;;;;;24.58;13.82;;;;;;;12.02;54.04;101506.88;5053552;28;20064;-62
2022/03/10 10:08:05;;;;;;;23.73;14.05;;;;;;;12.29;53.27;101508.84;5056559;28;20061;-63
2022/03/10 10:10:34;;;;;;;27.75;14.10;;;;;;;12.18;53.18;101502.69;5056470;28;20052;-61
2022/03/10 10:13:27;;;;;;;24.50;14.07;;;;;;;12.40;52.89;101502.81;5056624;28;20060;-62
2022/03/10 10:15:59;;;;;;;23.58;12.38;;;;;;;12.33;53.17;101504.34;5056156;28;20056;-61
2022/03/10 10:18:27;;;;;;;30.98;13.02;;;;;;;12.20;53.54;101502.41;5055959;28;20045;-62
2022/03/10 10:21:10;;;;;;;25.67;11.77;;;;;;;12.25;53.40;101500.34;5056352;28;20053;-62
2022/03/10 10:23:38;;;;;;;27.05;13.23;;;;;;;12.78;52.14;101492.34;5056627;28;20048;-62
2022/03/10 10:26:10;;;;;;;19.90;12.13;;;;;;;12.77;51.87;101493.47;5055886;28;20048;-62
2022/03/10 10:28:49;;;;;;;24.27;12.85;;;;;;;12.95;51.53;101487.00;5056394;28;20049;-63
2022/03/10 10:31:19;;;;;;;21.23;11.32;;;;;;;12.64;52.41;101486.00;5048110;28;20045;-62
2022/03/10 10:34:01;;;;;;;29.75;12.80;;;;;;;12.59;52.80;101482.56;5036004;28;20049;-62
2022/03/10 10:36:33;;;;;;;28.05;12.70;;;;;;;12.88;52.10;101483.03;5035892;28;20076;-62
2022/03/10 10:39:11;;;;;;;23.23;11.73;;;;;;;12.97;52.15;101470.09;5034919;28;20054;-63
2022/03/10 10:41:41;;;;;;;18.77;11.45;;;;;;;13.22;51.35;101472.28;5034594;28;20049;-63
2022/03/10 10:44:12;;;;;;;18.40;10.50;;;;;;;13.12;51.58;101470.59;5036148;28;20057;-62
2022/03/10 10:46:41;;;;;;;20.73;10.73;;;;;;;13.18;51.59;101463.81;5035849;28;20133;-63
2022/03/10 10:49:11;;;;;;;26.07;12.03;;;;;;;13.00;51.88;101458.41;5035867;28;20045;-63
2022/03/10 10:51:42;;;;;;;20.20;10.47;;;;;;;13.28;51.74;101451.69;5036020;28;20432;-63
2022/03/10 10:54:23;;;;;;;20.73;10.35;;;;;;;13.58;50.47;101446.22;5035978;28;20054;-63
2022/03/10 10:56:59;;;;;;;16.95;10.10;;;;;;;13.33;51.19;101449.63;5035223;28;20052;-63
2022/03/10 10:59:32;;;;;;;18.88;10.13;;;;;;;13.36;51.54;101449.00;5035737;28;20058;-62
2022/03/10 11:02:19;;;;;;;23.05;10.00;;;;;;;13.50;50.85;101444.22;5035664;28;20052;-62
2022/03/10 11:04:49;;;;;;;22.15;9.48;;;;;;;13.41;51.27;101440.56;5033687;28;20057;-63
2022/03/10 11:07:19;;;;;;;17.13;9.25;;;;;;;13.48;51.98;101429.88;5035619;28;20073;-62
2022/03/10 11:09:48;;;;;;;15.20;9.45;;;;;;;13.60;51.20;101434.03;5035641;28;20053;-63
2022/03/10 11:12:17;;;;;;;16.77;8.65;;;;;;;13.78;50.85;101424.66;5035596;28;20045;-62
2022/03/10 11:14:46;;;;;;;14.07;8.30;;;;;;;13.92;50.27;101426.22;5035150;28;20382;-63
2022/03/10 11:17:15;;;;;;;15.65;8.23;;;;;;;13.88;50.15;101413.34;5035128;28;20060;-63
2022/03/10 11:19:46;;;;;;;14.65;8.20;;;;;;;13.83;50.43;101410.69;5035330;28;20128;-63
2022/03/10 11:22:35;;;;;;;17.77;9.32;;;;;;;14.06;50.23;101406.72;5034164;28;20053;-63
2022/03/10 11:25:18;;;;;;;11.38;7.80;;;;;;;13.89;50.46;101409.41;5035510;28;20489;-62
2022/03/10 11:27:51;;;;;;;13.70;8.07;;;;;;;13.94;50.55;101407.34;5035448;28;20393;-61